Time;durP1;ratioP1;P1;durP2;ratioP2;P2;SDS_P1;SDS_P2;PMS_P1;PMS_P2;Temp;Humidity;BMP_temperature;BMP_pressure;BME280_temperature;BME280_humidity;BME280_pressure;Samples;Min_cycle;Max_cycle;Signal;HPM_P1;HPM_P2
2020/01/10 00:02:12;;;;;;;10;6.2;;;;;;;5.42;59.38672;960.7784;;;;
2020/01/10 00:04:37;;;;;;;10.3;6.4;;;;;;;5.31;59.77734;960.8102;;;;
2020/01/10 00:07:02;;;;;;;11;6.5;;;;;;;5.23;59.69824;960.8535;;;;
2020/01/10 00:09:27;;;;;;;10.7;6.6;;;;;;;5.24;60.18359;960.8494;;;;
2020/01/10 00:11:52;;;;;;;8.4;6;;;;;;;5.21;59.69531;960.7882;;;;
2020/01/10 00:14:17;;;;;;;8.9;6.2;;;;;;;5.18;59.80469;960.8254;;;;
2020/01/10 00:16:43;;;;;;;9.1;6.1;;;;;;;5.22;59.90332;960.8873;;;;
2020/01/10 00:19:08;;;;;;;9.5;6;;;;;;;5.22;60.10059;960.8992;;;;
2020/01/10 00:21:33;;;;;;;9;5.8;;;;;;;5.18;59.89844;960.8462;;;;
2020/01/10 00:23:58;;;;;;;10;6.2;;;;;;;5.13;60.66699;960.8184;;;;
2020/01/10 00:26:24;;;;;;;8.4;6;;;;;;;5.15;60.24121;960.8599;;;;
2020/01/10 00:28:49;;;;;;;9.9;6.2;;;;;;;5.15;60.10059;960.9101;;;;
2020/01/10 00:31:14;;;;;;;9.6;6.2;;;;;;;5.07;60.24316;961.0263;;;;
2020/01/10 00:33:39;;;;;;;10;5.6;;;;;;;4.95;61.18457;961.0045;;;;
2020/01/10 00:36:04;;;;;;;9.5;5.7;;;;;;;4.95;61.87695;961.064;;;;
2020/01/10 00:38:29;;;;;;;7.7;5.4;;;;;;;5;61.64355;961.1216;;;;
2020/01/10 00:40:54;;;;;;;8.8;5.9;;;;;;;4.84;61.49219;961.1396;;;;
2020/01/10 00:43:19;;;;;;;9.4;5.9;;;;;;;4.86;61.25293;961.1211;;;;
2020/01/10 00:45:44;;;;;;;8.6;6;;;;;;;4.86;61.85449;961.1815;;;;
2020/01/10 00:48:09;;;;;;;10;6;;;;;;;4.87;62.01758;961.2195;;;;
2020/01/10 00:50:34;;;;;;;9.6;5.7;;;;;;;4.93;61.81836;961.2313;;;;
2020/01/10 00:52:59;;;;;;;11;5.6;;;;;;;4.91;62.24316;961.3014;;;;
2020/01/10 00:55:25;;;;;;;8.1;5.8;;;;;;;4.94;62.45508;961.3695;;;;
2020/01/10 00:57:50;;;;;;;10.8;5.5;;;;;;;4.93;62.82324;961.3936;;;;
2020/01/10 01:00:15;;;;;;;8.5;5.7;;;;;;;4.97;62.67871;961.3739;;;;
2020/01/10 01:03:25;;;;;;;8.7;5.9;;;;;;;4.88;63.22168;961.4426;;;;
2020/01/10 01:05:05;;;;;;;8.4;5.3;;;;;;;4.88;63.5918;961.5013;;;;
2020/01/10 01:07:37;;;;;;;10.7;5.2;;;;;;;4.93;63.50684;961.4789;;;;
2020/01/10 01:10:00;;;;;;;8.2;5.2;;;;;;;4.95;63.78613;961.4783;;;;
2020/01/10 01:12:21;;;;;;;8.2;5.3;;;;;;;4.89;63.11914;961.433;;;;
2020/01/10 01:17:14;;;;;;;8.8;5.2;;;;;;;4.86;62.70996;961.5264;;;;
2020/01/10 01:19:37;;;;;;;7.4;4.9;;;;;;;4.96;62.38965;961.608;;;;
2020/01/10 01:22:14;;;;;;;6.7;4.9;;;;;;;4.89;62.23926;961.5984;;;;
2020/01/10 01:24:26;;;;;;;6;4.4;;;;;;;4.92;61.35254;961.5575;;;;
2020/01/10 01:26:51;;;;;;;8.9;4.8;;;;;;;4.95;62.32813;961.6395;;;;
2020/01/10 01:29:16;;;;;;;6.8;4.8;;;;;;;4.93;63.05566;961.6063;;;;
2020/01/10 01:31:41;;;;;;;7.8;4.8;;;;;;;4.88;63.5;961.668;;;;
2020/01/10 01:34:06;;;;;;;7.6;4.8;;;;;;;4.84;63.19141;961.7239;;;;
2020/01/10 01:36:31;;;;;;;7;5.1;;;;;;;4.76;63.24902;961.7395;;;;
2020/01/10 01:38:56;;;;;;;6.8;4.3;;;;;;;4.83;62.87988;961.7684;;;;
2020/01/10 01:41:21;;;;;;;7.1;4.8;;;;;;;4.82;63.1543;961.804;;;;
2020/01/10 01:43:46;;;;;;;8.1;4.7;;;;;;;4.7;63.93359;961.8214;;;;
2020/01/10 01:46:11;;;;;;;8.2;4.7;;;;;;;4.69;64.22266;961.8329;;;;
2020/01/10 01:48:36;;;;;;;5.3;4;;;;;;;4.78;63.23047;961.8111;;;;
2020/01/10 01:51:01;;;;;;;6.4;4.5;;;;;;;4.71;64.0625;961.8138;;;;
2020/01/10 01:53:27;;;;;;;7.4;4.6;;;;;;;4.59;64.77441;961.8591;;;;
2020/01/10 01:55:52;;;;;;;8.5;4.9;;;;;;;4.58;65.61719;961.8771;;;;
2020/01/10 01:58:17;;;;;;;7.3;4.5;;;;;;;4.59;66.06836;961.8922;;;;
2020/01/10 02:00:50;;;;;;;7.6;4.8;;;;;;;4.59;66.16016;961.9236;;;;
2020/01/10 02:03:15;;;;;;;7.7;5;;;;;;;4.59;65.61719;961.9381;;;;
2020/01/10 02:06:06;;;;;;;7.5;4.6;;;;;;;4.53;65.33008;962.0037;;;;
2020/01/10 02:10:19;;;;;;;7.5;4.7;;;;;;;4.55;65.49609;962.063;;;;
2020/01/10 02:12:44;;;;;;;7.6;4.3;;;;;;;4.56;64.85059;962.1055;;;;
2020/01/10 02:15:09;;;;;;;7;4.5;;;;;;;4.57;64.71289;962.1797;;;;
2020/01/10 02:17:34;;;;;;;7.6;4.7;;;;;;;4.44;65.30566;962.2283;;;;
2020/01/10 02:20:00;;;;;;;7.7;4.2;;;;;;;4.55;64.43457;962.2104;;;;
2020/01/10 02:22:25;;;;;;;5;3.7;;;;;;;4.54;63.50586;962.2255;;;;
2020/01/10 02:24:50;;;;;;;5.6;3.9;;;;;;;4.64;62.46973;962.2318;;;;
2020/01/10 02:27:15;;;;;;;5.5;3.9;;;;;;;4.62;61.28711;962.2381;;;;
2020/01/10 02:29:40;;;;;;;5.5;3.5;;;;;;;4.77;60.31445;962.2355;;;;
2020/01/10 02:32:05;;;;;;;5.8;3.9;;;;;;;4.82;59.9873;962.2679;;;;
2020/01/10 02:34:30;;;;;;;4.8;3.5;;;;;;;5.01;59.15527;962.2944;;;;
2020/01/10 02:36:55;;;;;;;4.8;3.7;;;;;;;5.04;59.61133;962.3284;;;;
2020/01/10 02:39:20;;;;;;;4.8;3.8;;;;;;;5.16;58.95801;962.3408;;;;
2020/01/10 02:41:45;;;;;;;5.1;3.4;;;;;;;5.23;59.18848;962.3502;;;;
2020/01/10 02:44:10;;;;;;;5.5;3.7;;;;;;;5.18;59.87402;962.3954;;;;
2020/01/10 02:46:35;;;;;;;5.9;3.6;;;;;;;5.31;58.79297;962.3845;;;;
2020/01/10 02:49:00;;;;;;;5.2;3.6;;;;;;;5.32;58.81836;962.4353;;;;
2020/01/10 02:51:26;;;;;;;4.4;3.2;;;;;;;5.45;57.29492;962.4063;;;;
2020/01/10 02:53:51;;;;;;;4.8;3.5;;;;;;;5.59;55.98145;962.4269;;;;
2020/01/10 02:56:16;;;;;;;5.1;3.2;;;;;;;5.73;55.74512;962.4796;;;;
2020/01/10 02:58:41;;;;;;;4.6;3.3;;;;;;;5.79;55.77637;962.4595;;;;
2020/01/10 03:01:07;;;;;;;5.3;3.3;;;;;;;5.9;55.59277;962.5266;;;;
2020/01/10 03:03:32;;;;;;;4.8;3.4;;;;;;;5.94;54.71777;962.5631;;;;
2020/01/10 03:05:56;;;;;;;4.5;3.3;;;;;;;5.9;55.23438;962.5159;;;;
2020/01/10 03:08:21;;;;;;;6.2;3.5;;;;;;;5.73;55.57031;962.4797;;;;
2020/01/10 03:10:47;;;;;;;5.6;3.6;;;;;;;5.75;55.96777;962.4267;;;;
2020/01/10 03:13:12;;;;;;;5.4;3.9;;;;;;;5.68;55.84375;962.5204;;;;
2020/01/10 03:15:37;;;;;;;5.9;3.9;;;;;;;5.76;55.81836;962.4579;;;;
2020/01/10 03:18:02;;;;;;;5.6;3.6;;;;;;;5.74;56.02441;962.4196;;;;
2020/01/10 03:20:48;;;;;;;5.1;3.4;;;;;;;5.83;56.03613;962.4836;;;;
2020/01/10 03:22:55;;;;;;;5.6;3.7;;;;;;;5.89;55.89355;962.5119;;;;
2020/01/10 03:25:24;;;;;;;5.3;3.8;;;;;;;5.83;56.77832;962.5594;;;;
2020/01/10 03:28:18;;;;;;;5.9;3.8;;;;;;;5.69;58.19629;962.5775;;;;
2020/01/10 03:30:07;;;;;;;5.8;3.6;;;;;;;5.69;56.94531;962.5935;;;;
2020/01/10 03:32:32;;;;;;;5.2;3.4;;;;;;;5.67;56.96582;962.5524;;;;
2020/01/10 03:34:57;;;;;;;4.6;3.3;;;;;;;5.72;57.28516;962.5751;;;;
2020/01/10 03:37:22;;;;;;;5.7;3.6;;;;;;;5.69;57.54688;962.6075;;;;
2020/01/10 03:39:47;;;;;;;4.4;3.3;;;;;;;5.63;57.16797;962.5298;;;;
2020/01/10 03:42:13;;;;;;;5.3;3.4;;;;;;;5.62;57.50391;962.6075;;;;
2020/01/10 03:44:38;;;;;;;5.8;3.3;;;;;;;5.79;56.2627;962.592;;;;
2020/01/10 03:47:04;;;;;;;5.3;3.1;;;;;;;5.8;56.73828;962.6458;;;;
2020/01/10 03:49:37;;;;;;;5.7;3.5;;;;;;;5.96;56.03027;962.6279;;;;
2020/01/10 03:52:00;;;;;;;5.9;3.5;;;;;;;5.96;56.37793;962.6255;;;;
2020/01/10 03:54:18;;;;;;;4.6;3.3;;;;;;;6.03;56.44531;962.7222;;;;
2020/01/10 03:56:43;;;;;;;7.2;3.5;;;;;;;6.06;55.97461;962.6939;;;;
2020/01/10 03:59:08;;;;;;;5.1;3.5;;;;;;;6.2;55.99316;962.6628;;;;
2020/01/10 04:02:26;;;;;;;5.4;3.6;;;;;;;6.2;55.74805;962.7017;;;;
2020/01/10 04:04:52;;;;;;;4.5;3.2;;;;;;;6.25;55.63867;962.6192;;;;
2020/01/10 04:07:17;;;;;;;5.8;3.5;;;;;;;6.31;55.77344;962.687;;;;
2020/01/10 04:09:44;;;;;;;5.7;3.4;;;;;;;6.35;55.30273;962.6959;;;;
2020/01/10 04:14:45;;;;;;;5;3.2;;;;;;;6.39;55.60059;962.7916;;;;
2020/01/10 04:16:57;;;;;;;5.9;3.4;;;;;;;6.44;55.41895;962.8055;;;;
2020/01/10 04:19:22;;;;;;;4.9;3.5;;;;;;;6.47;55.8418;962.8169;;;;
2020/01/10 04:21:47;;;;;;;6.9;3;;;;;;;6.5;56.12402;962.7975;;;;
2020/01/10 04:24:13;;;;;;;6;3.2;;;;;;;6.57;56.04004;962.8049;;;;
2020/01/10 04:26:38;;;;;;;4.1;3.2;;;;;;;6.53;56.2207;962.8923;;;;
2020/01/10 04:29:03;;;;;;;5.1;3.1;;;;;;;6.59;56.30957;962.8725;;;;
2020/01/10 04:31:28;;;;;;;6;3.1;;;;;;;6.62;56.41797;962.8848;;;;
2020/01/10 04:33:53;;;;;;;6.4;3.4;;;;;;;6.6;56.56738;962.9017;;;;
2020/01/10 04:36:18;;;;;;;4.4;3.1;;;;;;;6.61;56.71875;962.9031;;;;
2020/01/10 04:38:43;;;;;;;5.2;3.2;;;;;;;6.62;56.68555;962.907;;;;
2020/01/10 04:41:08;;;;;;;4;3;;;;;;;6.65;56.70215;962.9846;;;;
2020/01/10 04:43:33;;;;;;;4.8;3.2;;;;;;;6.78;56.66113;962.9694;;;;
2020/01/10 04:45:58;;;;;;;5.4;3.4;;;;;;;6.78;56.78906;963.0405;;;;
2020/01/10 04:48:23;;;;;;;4.6;3;;;;;;;6.86;56.92578;963.0747;;;;
2020/01/10 04:50:48;;;;;;;5.2;3.2;;;;;;;6.93;57.04004;963.0096;;;;
2020/01/10 04:53:14;;;;;;;4.1;3;;;;;;;6.98;57.16309;962.959;;;;
2020/01/10 04:55:39;;;;;;;4.3;3.2;;;;;;;6.94;57.61035;962.9387;;;;
2020/01/10 04:58:04;;;;;;;7;3.3;;;;;;;6.98;57.90723;962.9558;;;;
2020/01/10 05:00:29;;;;;;;4.8;3;;;;;;;6.98;58.1748;962.9551;;;;
2020/01/10 05:02:54;;;;;;;4.6;3;;;;;;;7.05;58.40527;962.942;;;;
2020/01/10 05:05:19;;;;;;;4.5;3.2;;;;;;;7.03;58.6123;962.9977;;;;
2020/01/10 05:07:44;;;;;;;4.3;2.8;;;;;;;7.12;58.75195;962.9852;;;;
2020/01/10 05:10:09;;;;;;;4;3;;;;;;;7.07;59.12793;963.0491;;;;
2020/01/10 05:12:34;;;;;;;4.9;3;;;;;;;7.13;59.23047;963.0087;;;;
2020/01/10 05:14:59;;;;;;;5.6;3.2;;;;;;;7.23;59.18457;963.0302;;;;
2020/01/10 05:17:25;;;;;;;4.1;3.2;;;;;;;7.21;59.62598;963.0253;;;;
2020/01/10 05:19:50;;;;;;;5;3.2;;;;;;;7.22;60.03418;963.0491;;;;
2020/01/10 05:22:15;;;;;;;4.7;2.8;;;;;;;7.24;60.49023;962.9958;;;;
2020/01/10 05:24:40;;;;;;;4.9;3;;;;;;;7.21;61.03125;963.0103;;;;
2020/01/10 05:27:05;;;;;;;5.2;2.8;;;;;;;7.18;61.51465;963.0261;;;;
2020/01/10 05:29:30;;;;;;;4.4;2.7;;;;;;;7.19;62.00586;963.038;;;;
2020/01/10 05:31:56;;;;;;;3.2;2.4;;;;;;;7.31;61.80176;963.0667;;;;
2020/01/10 05:34:21;;;;;;;3.8;2.7;;;;;;;7.27;62.09863;963.0493;;;;
2020/01/10 05:36:46;;;;;;;4.6;2.5;;;;;;;7.3;62.19531;963.0606;;;;
2020/01/10 05:39:11;;;;;;;3.2;2.4;;;;;;;7.36;62.03125;963.1052;;;;
2020/01/10 05:41:36;;;;;;;4.3;2.6;;;;;;;7.45;61.96094;963.1199;;;;
2020/01/10 05:44:01;;;;;;;3.4;2.3;;;;;;;7.49;61.89746;963.1605;;;;
2020/01/10 05:46:27;;;;;;;4.2;2.4;;;;;;;7.49;62.07227;963.1922;;;;
2020/01/10 05:48:52;;;;;;;5.2;2.6;;;;;;;7.59;61.72559;963.2177;;;;
2020/01/10 05:51:17;;;;;;;6;2.5;;;;;;;7.63;61.52344;963.2377;;;;
2020/01/10 05:53:42;;;;;;;3.9;2.7;;;;;;;7.62;61.49609;963.2267;;;;
2020/01/10 05:56:07;;;;;;;3.7;2.4;;;;;;;7.62;61.25293;963.2417;;;;
2020/01/10 05:58:32;;;;;;;3.8;2.4;;;;;;;7.64;61.18555;963.2472;;;;
2020/01/10 06:00:58;;;;;;;3.8;2.5;;;;;;;7.69;60.92578;963.2145;;;;
2020/01/10 06:03:23;;;;;;;3.8;2.4;;;;;;;7.65;61.09375;963.2734;;;;
2020/01/10 06:05:48;;;;;;;3.4;2.4;;;;;;;7.66;61.02539;963.3055;;;;
2020/01/10 06:08:14;;;;;;;3.2;2.5;;;;;;;7.62;60.9043;963.2871;;;;
2020/01/10 06:10:39;;;;;;;3.2;2.3;;;;;;;7.62;60.93945;963.3398;;;;
2020/01/10 06:13:04;;;;;;;4.4;2.6;;;;;;;7.56;61.26758;963.3593;;;;
2020/01/10 06:15:29;;;;;;;6.2;2.9;;;;;;;7.49;61.37402;963.3752;;;;
2020/01/10 06:17:54;;;;;;;5.2;2.7;;;;;;;7.4;61.76855;963.4062;;;;
2020/01/10 06:20:19;;;;;;;5.7;2.9;;;;;;;7.3;62.12598;963.3981;;;;
2020/01/10 06:23:03;;;;;;;4.9;3;;;;;;;7.28;62.20508;963.3896;;;;
2020/01/10 06:25:46;;;;;;;5.1;3.2;;;;;;;7.15;62.24414;963.452;;;;
2020/01/10 06:28:02;;;;;;;4.1;3;;;;;;;7.19;62.13281;963.3949;;;;
2020/01/10 06:30:24;;;;;;;7.8;2.8;;;;;;;7.22;62.16113;963.3697;;;;
2020/01/10 06:32:49;;;;;;;5.2;3;;;;;;;7.19;61.64551;963.3785;;;;
2020/01/10 06:35:14;;;;;;;5.7;3.1;;;;;;;7.13;61.25195;963.4451;;;;
2020/01/10 06:37:39;;;;;;;8;3.4;;;;;;;7.14;61.17383;963.4334;;;;
2020/01/10 06:40:04;;;;;;;5.3;3.5;;;;;;;7.15;60.83691;963.4439;;;;
2020/01/10 06:42:29;;;;;;;4.2;3.3;;;;;;;7.15;62.88281;963.4714;;;;
2020/01/10 06:44:54;;;;;;;5.6;3.5;;;;;;;7.09;60.81641;963.4372;;;;
2020/01/10 06:47:19;;;;;;;4.6;3.5;;;;;;;7.15;60.65039;963.4016;;;;
2020/01/10 06:49:44;;;;;;;6.8;3.3;;;;;;;7.11;60.34375;963.4289;;;;
2020/01/10 06:52:09;;;;;;;5.9;3.1;;;;;;;7.15;59.65039;963.4398;;;;
2020/01/10 06:54:34;;;;;;;4.5;3.2;;;;;;;7.2;59.68164;963.4113;;;;
2020/01/10 06:56:59;;;;;;;5.5;3.6;;;;;;;7.19;59.37793;963.385;;;;
2020/01/10 06:59:24;;;;;;;3.7;3.1;;;;;;;7.22;59.09082;963.3513;;;;
2020/01/10 07:01:50;;;;;;;5.1;3.5;;;;;;;7.12;59.68164;963.4504;;;;
2020/01/10 07:04:15;;;;;;;6.1;3.7;;;;;;;7.1;60.04004;963.4938;;;;
2020/01/10 07:06:40;;;;;;;5.3;3.7;;;;;;;7.2;59.51855;963.505;;;;
2020/01/10 07:09:05;;;;;;;5;3.5;;;;;;;7.14;59.49805;963.5514;;;;
2020/01/10 07:11:30;;;;;;;5.7;3.9;;;;;;;7.17;59.16602;963.5221;;;;
2020/01/10 07:13:55;;;;;;;6.3;3.9;;;;;;;7.27;59.0166;963.5096;;;;
2020/01/10 07:16:20;;;;;;;7.5;3.8;;;;;;;7.25;58.66504;963.5889;;;;
2020/01/10 07:18:45;;;;;;;5;3.7;;;;;;;7.18;59.00391;963.6612;;;;
2020/01/10 07:23:37;;;;;;;7.2;3.9;;;;;;;7.21;58.97461;963.7728;;;;
2020/01/10 07:26:00;;;;;;;6.9;4;;;;;;;7.17;59.1416;963.7877;;;;
2020/01/10 07:28:26;;;;;;;6.8;3.8;;;;;;;7.19;58.9834;963.8064;;;;
2020/01/10 07:30:51;;;;;;;8.5;4.3;;;;;;;7.48;58.61523;963.8156;;;;
2020/01/10 07:33:16;;;;;;;7.2;4.5;;;;;;;8.87;54.50879;963.8063;;;;
2020/01/10 07:35:41;;;;;;;7.4;4.7;;;;;;;10.12;50.50977;963.8279;;;;
2020/01/10 07:38:06;;;;;;;7.3;4.8;;;;;;;10.2;49.62891;963.8691;;;;
2020/01/10 07:40:31;;;;;;;5.6;4.2;;;;;;;9.54;51.41211;963.8714;;;;
2020/01/10 07:42:56;;;;;;;6.5;4.6;;;;;;;8.76;53.92188;963.9142;;;;
2020/01/10 07:45:21;;;;;;;5.9;3.9;;;;;;;8.86;54.05078;963.9189;;;;
2020/01/10 07:47:46;;;;;;;6.2;3.6;;;;;;;9.61;52.11133;963.9419;;;;
2020/01/10 07:50:11;;;;;;;5.3;3.5;;;;;;;10.2;50.66016;963.9072;;;;
2020/01/10 07:52:36;;;;;;;5.9;3.6;;;;;;;9.98;51.12598;963.8714;;;;
2020/01/10 07:55:02;;;;;;;7.8;3.5;;;;;;;10.55;49.95117;963.8981;;;;
2020/01/10 07:57:26;;;;;;;6.5;3.2;;;;;;;11.05;48.45996;963.9899;;;;
2020/01/10 07:59:52;;;;;;;5.2;3.1;;;;;;;11.65;47.01074;964.0465;;;;
2020/01/10 08:02:17;;;;;;;8.7;3;;;;;;;12.34;45.17871;964.0612;;;;
2020/01/10 08:04:42;;;;;;;5.2;3;;;;;;;12.21;45.87109;964.0325;;;;
2020/01/10 08:07:07;;;;;;;3.8;3;;;;;;;11.7;47.61523;964.1553;;;;
2020/01/10 08:10:54;;;;;;;5.1;3;;;;;;;11.29;48.87402;964.171;;;;
2020/01/10 08:13:19;;;;;;;4.7;2.7;;;;;;;11.58;48.70605;964.1609;;;;
2020/01/10 08:15:44;;;;;;;4.2;2.8;;;;;;;12.15;47.53516;964.1553;;;;
2020/01/10 08:18:09;;;;;;;3.4;2.6;;;;;;;12.46;46.82813;964.1978;;;;
2020/01/10 08:20:34;;;;;;;4.6;2.5;;;;;;;12.99;45.94238;964.1218;;;;
2020/01/10 08:22:59;;;;;;;3;2.3;;;;;;;13.82;43.85645;964.2156;;;;
2020/01/10 08:25:25;;;;;;;5.9;2.5;;;;;;;14.55;42.60547;964.1325;;;;
2020/01/10 08:27:50;;;;;;;4.7;2.4;;;;;;;14.93;41.69629;964.093;;;;
2020/01/10 08:30:15;;;;;;;4;2.5;;;;;;;13.46;45.10742;964.1944;;;;
2020/01/10 08:32:40;;;;;;;3.5;2.3;;;;;;;12.99;46.69629;964.3103;;;;
2020/01/10 08:35:05;;;;;;;5.7;2.3;;;;;;;13.01;47.39355;964.343;;;;
2020/01/10 08:37:30;;;;;;;3.9;2.6;;;;;;;15.37;41.82129;964.3419;;;;
2020/01/10 08:39:55;;;;;;;5.8;2.4;;;;;;;13.23;46.46387;964.3013;;;;
2020/01/10 08:42:20;;;;;;;3.1;2.3;;;;;;;12.17;49.71484;964.341;;;;
2020/01/10 08:44:45;;;;;;;5.5;2.3;;;;;;;11.85;51.25293;964.3496;;;;
2020/01/10 08:47:10;;;;;;;4.3;2.4;;;;;;;11.57;52.37109;964.3789;;;;
2020/01/10 08:49:36;;;;;;;4.1;2.1;;;;;;;10.97;54.3291;964.3616;;;;
2020/01/10 08:52:01;;;;;;;2.7;2;;;;;;;10.62;55.87891;964.4816;;;;
2020/01/10 08:54:26;;;;;;;3.1;2;;;;;;;10.11;57.49902;964.5175;;;;
2020/01/10 08:56:51;;;;;;;3.1;1.9;;;;;;;10.27;57.70801;964.5547;;;;
2020/01/10 08:59:16;;;;;;;2.5;1.7;;;;;;;10.05;58.30957;964.6082;;;;
2020/01/10 09:01:41;;;;;;;3;1.9;;;;;;;10.17;58.22168;964.5972;;;;
2020/01/10 09:04:06;;;;;;;4.2;1.9;;;;;;;10.04;58.89258;964.6035;;;;
2020/01/10 09:06:31;;;;;;;3.5;1.9;;;;;;;9.89;59.58789;964.5572;;;;
2020/01/10 09:08:56;;;;;;;2.4;1.8;;;;;;;10;59.47461;964.5894;;;;
2020/01/10 09:11:21;;;;;;;4.2;1.9;;;;;;;9.95;59.85254;964.6219;;;;
2020/01/10 09:13:46;;;;;;;3.6;1.9;;;;;;;10.01;59.58008;964.6756;;;;
2020/01/10 09:16:16;;;;;;;3.3;2;;;;;;;10.14;59.35352;964.6287;;;;
2020/01/10 09:18:37;;;;;;;3.6;1.9;;;;;;;10.35;58.97168;964.6298;;;;
2020/01/10 09:21:08;;;;;;;3.8;1.8;;;;;;;10.15;59.31836;964.6227;;;;
2020/01/10 09:23:37;;;;;;;3;1.9;;;;;;;10.38;58.95117;964.7159;;;;
2020/01/10 09:26:06;;;;;;;2.5;1.8;;;;;;;10.32;59.0498;964.7446;;;;
2020/01/10 09:28:35;;;;;;;3.1;1.7;;;;;;;10.43;58.67578;964.791;;;;
2020/01/10 09:33:18;;;;;;;2.9;1.8;;;;;;;10.78;57.96289;964.7818;;;;
2020/01/10 09:35:34;;;;;;;4.5;1.7;;;;;;;10.83;57.71191;964.7849;;;;
2020/01/10 09:37:57;;;;;;;2.4;1.6;;;;;;;11.06;57.26172;964.7432;;;;
2020/01/10 09:40:22;;;;;;;2.3;1.6;;;;;;;11.04;57.00098;964.7762;;;;
2020/01/10 09:42:48;;;;;;;2.6;1.6;;;;;;;11.26;56.91113;964.8777;;;;
2020/01/10 09:45:13;;;;;;;2.4;1.4;;;;;;;11.49;56.53125;964.834;;;;
2020/01/10 09:47:39;;;;;;;2.8;1.5;;;;;;;11.57;55.97754;964.8088;;;;
2020/01/10 09:50:04;;;;;;;3.8;1.8;;;;;;;11.79;55.59473;964.8987;;;;
2020/01/10 09:52:29;;;;;;;3.1;1.4;;;;;;;11.72;55.59668;964.8061;;;;
2020/01/10 09:54:54;;;;;;;2.6;1.4;;;;;;;11.43;56.15918;964.8356;;;;
2020/01/10 09:57:19;;;;;;;2.5;1.4;;;;;;;11.41;56.46094;964.8256;;;;
2020/01/10 09:59:44;;;;;;;1.7;1.3;;;;;;;11.44;56.72461;964.8024;;;;
2020/01/10 10:02:09;;;;;;;3.1;1.5;;;;;;;11.44;57.37012;964.7952;;;;
2020/01/10 10:04:34;;;;;;;3.5;1.2;;;;;;;11.41;56.89746;964.8442;;;;
2020/01/10 10:06:59;;;;;;;2.8;1.3;;;;;;;11.29;56.9043;964.7378;;;;
2020/01/10 10:09:25;;;;;;;3.6;1.4;;;;;;;11.16;57.49707;964.6948;;;;
2020/01/10 10:11:50;;;;;;;2.2;1.4;;;;;;;11.11;57.72461;964.6954;;;;
2020/01/10 10:14:15;;;;;;;1.5;1;;;;;;;11.06;57.31934;964.6663;;;;
2020/01/10 10:16:40;;;;;;;1.9;1.2;;;;;;;11.08;57.5459;964.6688;;;;
2020/01/10 10:19:05;;;;;;;2.1;1.1;;;;;;;11.01;57.6416;964.75;;;;
2020/01/10 10:21:30;;;;;;;1.6;1.1;;;;;;;11.09;57.62891;964.6692;;;;
2020/01/10 10:23:56;;;;;;;1.4;1.1;;;;;;;11.23;57.40137;964.6882;;;;
2020/01/10 10:26:21;;;;;;;3.1;1.3;;;;;;;11.3;56.9873;964.6584;;;;
2020/01/10 10:28:46;;;;;;;1.8;1.2;;;;;;;11.39;56.77637;964.645;;;;
2020/01/10 10:31:11;;;;;;;1.7;1.2;;;;;;;11.47;56.52832;964.6448;;;;
2020/01/10 10:33:37;;;;;;;2;1.1;;;;;;;11.63;55.9375;964.6328;;;;
2020/01/10 10:36:02;;;;;;;1.7;1.1;;;;;;;11.5;56.2041;964.5708;;;;
2020/01/10 10:38:27;;;;;;;2.4;1.1;;;;;;;11.49;56.35547;964.604;;;;
2020/01/10 10:40:52;;;;;;;1.7;1.1;;;;;;;11.46;56.3623;964.5134;;;;
2020/01/10 10:43:17;;;;;;;3.5;1;;;;;;;11.48;56.23535;964.5312;;;;
2020/01/10 10:45:42;;;;;;;1.4;0.9;;;;;;;11.51;56.20605;964.5294;;;;
2020/01/10 10:48:07;;;;;;;1.7;0.9;;;;;;;11.52;56.1709;964.5594;;;;
2020/01/10 10:50:32;;;;;;;2.5;1;;;;;;;11.56;55.69336;964.6174;;;;
2020/01/10 10:52:57;;;;;;;2;0.9;;;;;;;11.54;55.46875;964.6443;;;;
2020/01/10 10:55:22;;;;;;;1.9;1;;;;;;;11.54;55.59863;964.6398;;;;
2020/01/10 10:57:47;;;;;;;1.7;0.9;;;;;;;11.63;55.5498;964.7191;;;;
2020/01/10 11:00:13;;;;;;;1.1;0.8;;;;;;;11.82;54.94043;964.7733;;;;
2020/01/10 11:02:38;;;;;;;2.4;0.9;;;;;;;11.88;54.60742;964.7583;;;;
2020/01/10 11:05:03;;;;;;;1.7;0.9;;;;;;;11.93;54.2832;964.7308;;;;
2020/01/10 11:07:28;;;;;;;1.5;0.8;;;;;;;11.77;54.68652;964.6345;;;;
2020/01/10 11:10:09;;;;;;;1.9;0.8;;;;;;;11.67;55.19141;964.6431;;;;
2020/01/10 11:12:20;;;;;;;2.6;0.9;;;;;;;11.75;55.11914;964.7361;;;;
2020/01/10 11:14:43;;;;;;;4.3;1;;;;;;;11.79;54.88965;964.7195;;;;
2020/01/10 11:17:08;;;;;;;2.8;0.9;;;;;;;12.01;54.45898;964.6506;;;;
2020/01/10 11:19:33;;;;;;;2.8;1;;;;;;;12.15;54.26367;964.6121;;;;
2020/01/10 11:22:08;;;;;;;3;0.9;;;;;;;12.12;54.2959;964.6697;;;;
2020/01/10 11:26:49;;;;;;;1.8;1;;;;;;;12.2;54.2002;964.6755;;;;
2020/01/10 11:31:40;;;;;;;2.3;1.1;;;;;;;12.09;54.00977;964.7136;;;;
2020/01/10 11:36:32;;;;;;;4.3;1;;;;;;;12.03;54.34375;964.7088;;;;
2020/01/10 11:38:54;;;;;;;5.9;1.1;;;;;;;11.89;54.57324;964.7453;;;;
2020/01/10 11:41:20;;;;;;;1.3;0.9;;;;;;;11.94;54.32031;964.7857;;;;
2020/01/10 11:43:45;;;;;;;2.1;1;;;;;;;11.85;54.34375;964.7738;;;;
2020/01/10 11:46:10;;;;;;;1.3;0.9;;;;;;;11.88;54.66602;964.8209;;;;
2020/01/10 11:48:35;;;;;;;2.2;1.2;;;;;;;11.82;54.72949;964.7483;;;;
2020/01/10 11:51:00;;;;;;;3.8;1.1;;;;;;;11.92;54.53027;964.8094;;;;
2020/01/10 11:53:25;;;;;;;4.1;1.1;;;;;;;11.92;54.68164;964.795;;;;
2020/01/10 11:55:50;;;;;;;2;1.1;;;;;;;12.16;53.73535;964.8381;;;;
2020/01/10 11:58:15;;;;;;;1.6;1;;;;;;;12.35;53.37109;964.9254;;;;
2020/01/10 12:00:40;;;;;;;2.3;0.9;;;;;;;12.63;52.23926;964.8524;;;;
2020/01/10 12:03:05;;;;;;;2.7;1.1;;;;;;;12.67;52.11523;964.9244;;;;
2020/01/10 12:05:31;;;;;;;3.8;1;;;;;;;12.94;51.31152;964.8839;;;;
2020/01/10 12:07:56;;;;;;;5.2;1.2;;;;;;;13.01;50.97754;964.8539;;;;
2020/01/10 12:10:21;;;;;;;4.6;1.1;;;;;;;13.24;50.11914;964.8125;;;;
2020/01/10 12:12:46;;;;;;;2.9;1;;;;;;;13.5;49.34766;964.7776;;;;
2020/01/10 12:15:11;;;;;;;2.2;1;;;;;;;13.54;49.00977;964.8472;;;;
2020/01/10 12:17:36;;;;;;;2.2;1;;;;;;;13.49;49.26367;964.8656;;;;
2020/01/10 12:20:01;;;;;;;2.8;1.1;;;;;;;13.45;49.41211;964.9029;;;;
2020/01/10 12:22:26;;;;;;;1.7;1.1;;;;;;;13.55;49.23535;964.8498;;;;
2020/01/10 12:24:51;;;;;;;3.9;1.2;;;;;;;13.63;49.15039;964.9922;;;;
2020/01/10 12:27:16;;;;;;;3.3;0.9;;;;;;;13.65;48.25586;964.9582;;;;
2020/01/10 12:29:42;;;;;;;4.7;1.1;;;;;;;13.62;48.5459;964.8856;;;;
2020/01/10 12:32:07;;;;;;;5.2;1;;;;;;;13.7;48.18848;964.981;;;;
2020/01/10 12:34:32;;;;;;;3.6;1;;;;;;;13.72;47.96777;964.8675;;;;
2020/01/10 12:36:57;;;;;;;5;1.3;;;;;;;13.85;48.01758;964.8741;;;;
2020/01/10 12:39:22;;;;;;;3.6;1;;;;;;;13.86;47.72266;964.8661;;;;
2020/01/10 12:41:47;;;;;;;2;0.9;;;;;;;13.85;47.32031;964.9385;;;;
2020/01/10 12:44:12;;;;;;;4.9;1;;;;;;;13.91;47.41016;964.9182;;;;
2020/01/10 12:46:37;;;;;;;3.1;1.1;;;;;;;13.75;47.30957;964.8736;;;;
2020/01/10 12:49:02;;;;;;;1.7;0.9;;;;;;;13.86;47.45117;964.8744;;;;
2020/01/10 12:51:27;;;;;;;7.1;1.1;;;;;;;13.9;47.50391;964.9498;;;;
2020/01/10 12:53:52;;;;;;;2.4;0.9;;;;;;;14.06;47.02344;964.9562;;;;
2020/01/10 12:56:18;;;;;;;2.1;1;;;;;;;13.89;47.19434;965.0352;;;;
2020/01/10 12:58:43;;;;;;;3;1;;;;;;;13.89;47.47852;965.0801;;;;
2020/01/10 13:01:08;;;;;;;2.9;0.9;;;;;;;14.12;47.31445;965.1285;;;;
2020/01/10 13:03:33;;;;;;;2.1;1;;;;;;;14.15;46.91602;965.0914;;;;
2020/01/10 13:05:58;;;;;;;1.1;0.8;;;;;;;14.22;46.94727;965.0978;;;;
2020/01/10 13:08:23;;;;;;;5;0.9;;;;;;;14.15;46.78613;965.0391;;;;
2020/01/10 13:10:48;;;;;;;2.7;0.9;;;;;;;13.51;48.02637;965.1066;;;;
2020/01/10 13:13:13;;;;;;;2;0.9;;;;;;;13.19;49.04102;965.1386;;;;
2020/01/10 13:15:38;;;;;;;2.9;0.9;;;;;;;13.05;49.99219;965.1902;;;;
2020/01/10 13:18:06;;;;;;;3.3;1;;;;;;;13.01;49.94043;965.197;;;;
2020/01/10 13:22:28;;;;;;;3.2;0.7;;;;;;;12.79;50.49219;965.2629;;;;
2020/01/10 13:23:07;;;;;;;1.4;1;;;;;;;12.95;50.17969;965.2828;;;;
2020/01/10 13:25:19;;;;;;;1.9;1;;;;;;;12.87;50.62012;965.2751;;;;
2020/01/10 13:27:44;;;;;;;3.7;1.1;;;;;;;12.57;51.39648;965.29;;;;
2020/01/10 13:30:09;;;;;;;1.8;1.1;;;;;;;12.6;51.66992;965.2986;;;;
2020/01/10 13:32:34;;;;;;;3.5;1;;;;;;;12.58;52.05664;965.3055;;;;
2020/01/10 13:34:59;;;;;;;2.3;1.1;;;;;;;12.5;52.23535;965.3463;;;;
2020/01/10 13:37:24;;;;;;;1.9;1.1;;;;;;;12.49;52.1875;965.3708;;;;
2020/01/10 13:39:49;;;;;;;3.3;1.3;;;;;;;12.11;53.11816;965.3837;;;;
2020/01/10 13:42:15;;;;;;;3.1;1;;;;;;;11.99;53.20898;965.4601;;;;
2020/01/10 13:44:40;;;;;;;1.4;1;;;;;;;12.04;53.44043;965.4901;;;;
2020/01/10 13:47:05;;;;;;;3.2;1.4;;;;;;;12.15;53.35938;965.4877;;;;
2020/01/10 13:49:30;;;;;;;1.9;1.2;;;;;;;12.03;53.47363;965.4036;;;;
2020/01/10 13:51:55;;;;;;;3.4;1.2;;;;;;;12.03;53.47363;965.459;;;;
2020/01/10 13:54:20;;;;;;;3.7;1.2;;;;;;;12.06;53.38281;965.5045;;;;
2020/01/10 13:56:45;;;;;;;1.8;1.3;;;;;;;12.02;53.625;965.4554;;;;
2020/01/10 13:59:10;;;;;;;3;1.1;;;;;;;11.89;54.16113;965.486;;;;
2020/01/10 14:01:35;;;;;;;1.5;1.1;;;;;;;11.83;54.43555;965.4872;;;;
2020/01/10 14:04:01;;;;;;;3.7;1.2;;;;;;;11.89;54.54883;965.5198;;;;
2020/01/10 14:06:26;;;;;;;2.7;1.3;;;;;;;11.88;54.72461;965.5876;;;;
2020/01/10 14:08:51;;;;;;;2.5;1.4;;;;;;;11.77;54.72266;965.553;;;;
2020/01/10 14:13:11;;;;;;;2.6;1.5;;;;;;;11.56;55.2002;965.6033;;;;
2020/01/10 14:15:36;;;;;;;4;1.6;;;;;;;11.52;55.5127;965.6155;;;;
2020/01/10 14:18:01;;;;;;;4.1;1.4;;;;;;;11.53;55.74902;965.6028;;;;
2020/01/10 14:20:26;;;;;;;3.5;1.3;;;;;;;11.55;55.58691;965.6701;;;;
2020/01/10 14:22:51;;;;;;;5.6;1.7;;;;;;;11.56;55.71875;965.74;;;;
2020/01/10 14:25:16;;;;;;;5.1;1.6;;;;;;;11.43;56.05371;965.7489;;;;
2020/01/10 14:27:41;;;;;;;5.2;1.8;;;;;;;11.29;56.46973;965.8455;;;;
2020/01/10 14:30:06;;;;;;;5.4;1.6;;;;;;;11.35;56.5957;965.8184;;;;
2020/01/10 14:32:31;;;;;;;3.2;1.5;;;;;;;11.23;56.80371;965.8649;;;;
2020/01/10 14:34:56;;;;;;;3.7;1.5;;;;;;;11.25;56.86328;965.8764;;;;
2020/01/10 14:37:21;;;;;;;3.9;1.5;;;;;;;11.2;57.1377;965.8273;;;;
2020/01/10 14:39:47;;;;;;;3.4;1.5;;;;;;;11.23;57.0498;965.8502;;;;
2020/01/10 14:42:12;;;;;;;3.9;1.5;;;;;;;11.24;56.95703;965.8562;;;;
2020/01/10 14:44:37;;;;;;;3.6;1.6;;;;;;;11.26;57.09961;965.8527;;;;